南京市, China

2016年9月27日 13時14分 (GMT +0800)
Lukou | | Change Station

海拔 118 ft 31.93 °N, 118.90 °E | Updated 14 minutes ago

Scattered Clouds
多雲時晴
88 °F
感覺像 96 °F
9
風 變化 風 來自 東北偏東

今日
高 -- | 低 -- °F
--% 降水機率
昨天
高 -- | 低 -- °F
Precip. -- 英寸
氣壓 29.83 英寸
能見度 6.2 英里
多雲 多雲時晴 3000 ft
高溫指數 96 °F
露點 73 °F
濕度 62%
降雨量 0.00 英寸
積雪深度 不適用。
5:55 AM 5:54 PM
殘月, 14% visible
METAR ZSNJ 270500Z 07004MPS 9999 SCT030 31/23 Q1010 NOSIG
氣壓 29.83 英寸
能見度 6.2 英里
多雲 多雲時晴 3000 ft
高溫指數 96 °F
露點 73 °F
濕度 62%
降雨量 0.00 英寸
積雪深度 不適用。
5:55 AM 5:54 PM
殘月, 14% visible
METAR ZSNJ 270500Z 07004MPS 9999 SCT030 31/23 Q1010 NOSIG

10-Day Weather Forecast

No radar image for this location.
×

Almanac

天文

Sep. 27, 2016 昇起 降落
實際時間
民用曙暮光
航海曙暮光
天文學微明
月亮
可見光的長度
白晝時間
Tomorrow will be .
, % of the Moon is Illuminated

今天之最

國家高溫 國家低溫

Community

WunderPhotos

Upload Photos

1,942,038 照片已上傳!

WunderBlog® & News

Nearby

空氣質素

  空氣質素 空氣質素指數 污染物
Not available.

積雪量

Station 深度 海拔

地震活動

城市 距離 時間和日期
顯示的最小幅度是2.5。

沿海水溫

地點 溫度

Stations

附近的氣象站

氣象站位置 溫度 風寒指數 露點 濕度 Precip. 海拔 最近更新時間 類型